sensor_id;sensor_type;location;lat;lon;timestamp;temperature;humidity
17425;DHT22;8830;50.978;5.058;2022-08-19T00:02:15;19.60;99.90
17425;DHT22;8830;50.978;5.058;2022-08-19T00:05:24;19.60;99.90
17425;DHT22;8830;50.978;5.058;2022-08-19T00:08:23;19.50;99.90
17425;DHT22;8830;50.978;5.058;2022-08-19T00:10:52;19.50;99.90
17425;DHT22;8830;50.978;5.058;2022-08-19T00:13:26;19.50;99.90
17425;DHT22;8830;50.978;5.058;2022-08-19T00:15:56;19.40;99.90
17425;DHT22;8830;50.978;5.058;2022-08-19T00:18:28;19.40;99.90
17425;DHT22;8830;50.978;5.058;2022-08-19T00:21:03;19.30;99.90
17425;DHT22;8830;50.978;5.058;2022-08-19T00:24:03;19.30;99.90
17425;DHT22;8830;50.978;5.058;2022-08-19T00:26:34;19.30;99.90
17425;DHT22;8830;50.978;5.058;2022-08-19T00:29:09;19.20;99.90
17425;DHT22;8830;50.978;5.058;2022-08-19T00:32:12;19.20;99.90
17425;DHT22;8830;50.978;5.058;2022-08-19T00:35:02;19.20;99.90
17425;DHT22;8830;50.978;5.058;2022-08-19T00:37:37;19.20;99.90
17425;DHT22;8830;50.978;5.058;2022-08-19T00:40:14;19.20;99.90
17425;DHT22;8830;50.978;5.058;2022-08-19T00:42:54;18.70;99.90
17425;DHT22;8830;50.978;5.058;2022-08-19T00:45:28;19.20;99.90
17425;DHT22;8830;50.978;5.058;2022-08-19T00:48:02;19.20;99.90
17425;DHT22;8830;50.978;5.058;2022-08-19T00:50:42;19.20;99.90
17425;DHT22;8830;50.978;5.058;2022-08-19T00:53:14;19.20;99.90
17425;DHT22;8830;50.978;5.058;2022-08-19T00:56:10;19.20;99.90
17425;DHT22;8830;50.978;5.058;2022-08-19T00:58:46;19.20;99.90
17425;DHT22;8830;50.978;5.058;2022-08-19T01:01:29;19.10;99.90
17425;DHT22;8830;50.978;5.058;2022-08-19T01:04:22;19.10;99.90
17425;DHT22;8830;50.978;5.058;2022-08-19T01:06:53;19.10;99.90
17425;DHT22;8830;50.978;5.058;2022-08-19T01:09:31;19.10;99.90
17425;DHT22;8830;50.978;5.058;2022-08-19T01:12:16;19.10;99.90
17425;DHT22;8830;50.978;5.058;2022-08-19T01:14:48;19.20;99.90
17425;DHT22;8830;50.978;5.058;2022-08-19T01:17:27;19.20;99.90
17425;DHT22;8830;50.978;5.058;2022-08-19T01:19:55;19.20;99.90
17425;DHT22;8830;50.978;5.058;2022-08-19T01:22:33;19.30;99.90
17425;DHT22;8830;50.978;5.058;2022-08-19T01:25:05;19.30;99.90
17425;DHT22;8830;50.978;5.058;2022-08-19T01:27:39;19.30;99.90
17425;DHT22;8830;50.978;5.058;2022-08-19T01:30:09;19.30;99.90
17425;DHT22;8830;50.978;5.058;2022-08-19T01:32:37;19.30;99.90
17425;DHT22;8830;50.978;5.058;2022-08-19T01:35:06;19.30;99.90
17425;DHT22;8830;50.978;5.058;2022-08-19T01:37:52;19.30;99.90
17425;DHT22;8830;50.978;5.058;2022-08-19T01:40:24;19.30;99.90
17425;DHT22;8830;50.978;5.058;2022-08-19T01:43:00;19.30;99.90
17425;DHT22;8830;50.978;5.058;2022-08-19T01:45:34;19.30;99.90
17425;DHT22;8830;50.978;5.058;2022-08-19T01:48:08;19.20;99.90
17425;DHT22;8830;50.978;5.058;2022-08-19T01:50:38;19.30;99.90
17425;DHT22;8830;50.978;5.058;2022-08-19T01:53:24;19.20;99.90
17425;DHT22;8830;50.978;5.058;2022-08-19T01:55:53;19.20;99.90
17425;DHT22;8830;50.978;5.058;2022-08-19T01:58:32;19.20;99.90
17425;DHT22;8830;50.978;5.058;2022-08-19T02:01:03;19.20;99.90
17425;DHT22;8830;50.978;5.058;2022-08-19T02:03:37;19.10;99.90
17425;DHT22;8830;50.978;5.058;2022-08-19T02:06:09;19.10;99.90
17425;DHT22;8830;50.978;5.058;2022-08-19T02:08:53;19.10;99.90
17425;DHT22;8830;50.978;5.058;2022-08-19T02:11:33;19.10;99.90
17425;DHT22;8830;50.978;5.058;2022-08-19T02:14:08;19.00;99.90
17425;DHT22;8830;50.978;5.058;2022-08-19T02:16:51;19.00;99.90
17425;DHT22;8830;50.978;5.058;2022-08-19T02:19:19;18.90;99.90
17425;DHT22;8830;50.978;5.058;2022-08-19T02:21:47;18.90;99.90
17425;DHT22;8830;50.978;5.058;2022-08-19T02:24:17;18.90;99.90
17425;DHT22;8830;50.978;5.058;2022-08-19T02:26:47;18.90;99.90
17425;DHT22;8830;50.978;5.058;2022-08-19T02:29:21;18.80;99.90
17425;DHT22;8830;50.978;5.058;2022-08-19T02:31:50;18.80;99.90
17425;DHT22;8830;50.978;5.058;2022-08-19T02:34:31;18.80;99.90
17425;DHT22;8830;50.978;5.058;2022-08-19T02:37:00;18.70;99.90
17425;DHT22;8830;50.978;5.058;2022-08-19T02:39:33;18.70;99.90
17425;DHT22;8830;50.978;5.058;2022-08-19T02:42:01;18.60;99.90
17425;DHT22;8830;50.978;5.058;2022-08-19T02:44:32;18.70;99.90
17425;DHT22;8830;50.978;5.058;2022-08-19T02:47:13;18.60;99.90
17425;DHT22;8830;50.978;5.058;2022-08-19T02:49:42;18.60;99.90
17425;DHT22;8830;50.978;5.058;2022-08-19T02:52:13;18.60;99.90
17425;DHT22;8830;50.978;5.058;2022-08-19T02:54:47;18.60;99.90
17425;DHT22;8830;50.978;5.058;2022-08-19T02:57:17;18.50;99.90
17425;DHT22;8830;50.978;5.058;2022-08-19T02:59:46;18.50;99.90
17425;DHT22;8830;50.978;5.058;2022-08-19T03:02:13;18.50;99.90
17425;DHT22;8830;50.978;5.058;2022-08-19T03:04:42;18.50;99.90
17425;DHT22;8830;50.978;5.058;2022-08-19T03:07:14;18.50;99.90
17425;DHT22;8830;50.978;5.058;2022-08-19T03:09:43;18.50;99.90
17425;DHT22;8830;50.978;5.058;2022-08-19T03:12:11;18.50;99.90
17425;DHT22;8830;50.978;5.058;2022-08-19T03:14:39;18.50;99.90
17425;DHT22;8830;50.978;5.058;2022-08-19T03:17:12;18.40;99.90
17425;DHT22;8830;50.978;5.058;2022-08-19T03:19:41;18.40;99.90
17425;DHT22;8830;50.978;5.058;2022-08-19T03:22:09;18.40;99.90
17425;DHT22;8830;50.978;5.058;2022-08-19T03:24:37;18.40;99.90
17425;DHT22;8830;50.978;5.058;2022-08-19T03:27:04;18.40;99.90
17425;DHT22;8830;50.978;5.058;2022-08-19T03:29:37;18.30;99.90
17425;DHT22;8830;50.978;5.058;2022-08-19T03:32:07;18.30;99.90
17425;DHT22;8830;50.978;5.058;2022-08-19T03:34:37;18.30;99.90
17425;DHT22;8830;50.978;5.058;2022-08-19T03:37:07;18.30;99.90
17425;DHT22;8830;50.978;5.058;2022-08-19T03:39:40;18.30;99.90
17425;DHT22;8830;50.978;5.058;2022-08-19T03:42:11;18.20;99.90
17425;DHT22;8830;50.978;5.058;2022-08-19T03:44:40;18.20;99.90
17425;DHT22;8830;50.978;5.058;2022-08-19T03:47:12;18.10;99.90
17425;DHT22;8830;50.978;5.058;2022-08-19T03:49:45;18.10;99.90
17425;DHT22;8830;50.978;5.058;2022-08-19T03:52:16;18.10;99.90
17425;DHT22;8830;50.978;5.058;2022-08-19T03:54:50;18.10;99.90
17425;DHT22;8830;50.978;5.058;2022-08-19T03:57:20;18.10;99.90
17425;DHT22;8830;50.978;5.058;2022-08-19T03:59:49;18.10;99.90
17425;DHT22;8830;50.978;5.058;2022-08-19T04:02:16;18.10;99.90
17425;DHT22;8830;50.978;5.058;2022-08-19T04:04:44;18.10;99.90
17425;DHT22;8830;50.978;5.058;2022-08-19T04:07:14;18.00;99.90
17425;DHT22;8830;50.978;5.058;2022-08-19T04:09:47;18.00;99.90
17425;DHT22;8830;50.978;5.058;2022-08-19T04:12:14;18.00;99.90
17425;DHT22;8830;50.978;5.058;2022-08-19T04:14:42;18.00;99.90
17425;DHT22;8830;50.978;5.058;2022-08-19T04:17:11;18.00;99.90
17425;DHT22;8830;50.978;5.058;2022-08-19T04:19:40;18.00;99.90
17425;DHT22;8830;50.978;5.058;2022-08-19T04:22:09;18.00;99.90
17425;DHT22;8830;50.978;5.058;2022-08-19T04:24:38;17.90;99.90
17425;DHT22;8830;50.978;5.058;2022-08-19T04:27:06;17.90;99.90
17425;DHT22;8830;50.978;5.058;2022-08-19T04:29:36;17.80;99.90
17425;DHT22;8830;50.978;5.058;2022-08-19T04:32:06;17.70;99.90
17425;DHT22;8830;50.978;5.058;2022-08-19T04:34:54;17.70;99.90
17425;DHT22;8830;50.978;5.058;2022-08-19T04:40:49;17.80;99.90
17425;DHT22;8830;50.978;5.058;2022-08-19T04:43:37;17.80;99.90
17425;DHT22;8830;50.978;5.058;2022-08-19T04:46:11;17.80;99.90
17425;DHT22;8830;50.978;5.058;2022-08-19T04:49:02;17.80;99.90
17425;DHT22;8830;50.978;5.058;2022-08-19T04:51:41;17.80;99.90
17425;DHT22;8830;50.978;5.058;2022-08-19T04:54:22;17.70;99.90
17425;DHT22;8830;50.978;5.058;2022-08-19T04:57:08;17.80;99.90
17425;DHT22;8830;50.978;5.058;2022-08-19T04:59:53;17.80;99.90
17425;DHT22;8830;50.978;5.058;2022-08-19T05:02:21;17.90;99.90
17425;DHT22;8830;50.978;5.058;2022-08-19T05:05:22;18.00;99.90
17425;DHT22;8830;50.978;5.058;2022-08-19T05:08:09;18.00;99.90
17425;DHT22;8830;50.978;5.058;2022-08-19T05:10:52;18.00;99.90
17425;DHT22;8830;50.978;5.058;2022-08-19T05:13:43;18.10;99.90
17425;DHT22;8830;50.978;5.058;2022-08-19T05:16:47;18.10;99.90
17425;DHT22;8830;50.978;5.058;2022-08-19T05:22:26;18.30;99.90
17425;DHT22;8830;50.978;5.058;2022-08-19T05:29:14;18.80;99.90
17425;DHT22;8830;50.978;5.058;2022-08-19T05:32:08;18.80;99.90
17425;DHT22;8830;50.978;5.058;2022-08-19T05:38:17;19.60;99.90
17425;DHT22;8830;50.978;5.058;2022-08-19T05:40:57;21.00;99.90
17425;DHT22;8830;50.978;5.058;2022-08-19T05:43:45;21.00;99.90
17425;DHT22;8830;50.978;5.058;2022-08-19T05:50:00;22.10;99.90
17425;DHT22;8830;50.978;5.058;2022-08-19T05:53:05;22.60;99.90
17425;DHT22;8830;50.978;5.058;2022-08-19T05:58:45;22.70;99.90
17425;DHT22;8830;50.978;5.058;2022-08-19T06:04:07;22.90;99.90
17425;DHT22;8830;50.978;5.058;2022-08-19T06:15:00;23.80;99.90
17425;DHT22;8830;50.978;5.058;2022-08-19T06:17:34;24.20;99.90
17425;DHT22;8830;50.978;5.058;2022-08-19T06:20:13;24.40;99.90
17425;DHT22;8830;50.978;5.058;2022-08-19T06:22:49;24.80;99.90
17425;DHT22;8830;50.978;5.058;2022-08-19T06:25:21;25.20;99.90
17425;DHT22;8830;50.978;5.058;2022-08-19T06:28:00;25.40;99.90
17425;DHT22;8830;50.978;5.058;2022-08-19T06:30:31;25.80;99.90
17425;DHT22;8830;50.978;5.058;2022-08-19T06:33:03;26.00;99.90
17425;DHT22;8830;50.978;5.058;2022-08-19T06:35:31;26.40;99.90
17425;DHT22;8830;50.978;5.058;2022-08-19T06:38:06;26.30;99.90
17425;DHT22;8830;50.978;5.058;2022-08-19T06:40:36;26.10;99.90
17425;DHT22;8830;50.978;5.058;2022-08-19T06:43:16;26.30;99.90
17425;DHT22;8830;50.978;5.058;2022-08-19T06:45:51;26.50;99.90
17425;DHT22;8830;50.978;5.058;2022-08-19T06:48:24;26.80;99.90
17425;DHT22;8830;50.978;5.058;2022-08-19T06:51:02;27.20;99.90
17425;DHT22;8830;50.978;5.058;2022-08-19T06:53:46;27.60;99.90
17425;DHT22;8830;50.978;5.058;2022-08-19T06:56:22;28.00;99.90
17425;DHT22;8830;50.978;5.058;2022-08-19T06:59:00;28.00;99.90
17425;DHT22;8830;50.978;5.058;2022-08-19T07:01:45;28.00;99.90
17425;DHT22;8830;50.978;5.058;2022-08-19T07:04:37;28.40;99.90
17425;DHT22;8830;50.978;5.058;2022-08-19T07:07:28;27.70;99.90
17425;DHT22;8830;50.978;5.058;2022-08-19T07:10:23;26.80;99.90
17425;DHT22;8830;50.978;5.058;2022-08-19T07:12:59;26.80;99.90
17425;DHT22;8830;50.978;5.058;2022-08-19T07:15:30;26.70;99.90
17425;DHT22;8830;50.978;5.058;2022-08-19T07:18:03;26.70;99.90
17425;DHT22;8830;50.978;5.058;2022-08-19T07:26:25;25.90;99.90
17425;DHT22;8830;50.978;5.058;2022-08-19T07:36:28;24.50;99.90
17425;DHT22;8830;50.978;5.058;2022-08-19T07:43:59;24.40;99.90
17425;DHT22;8830;50.978;5.058;2022-08-19T08:01:50;24.20;99.90
17425;DHT22;8830;50.978;5.058;2022-08-19T08:10:06;24.90;99.90
17425;DHT22;8830;50.978;5.058;2022-08-19T08:12:40;25.50;99.90
17425;DHT22;8830;50.978;5.058;2022-08-19T08:15:12;26.30;99.90
17425;DHT22;8830;50.978;5.058;2022-08-19T08:20:15;27.10;99.90
17425;DHT22;8830;50.978;5.058;2022-08-19T08:22:52;27.30;99.90
17425;DHT22;8830;50.978;5.058;2022-08-19T08:30:42;26.30;99.90
17425;DHT22;8830;50.978;5.058;2022-08-19T08:38:27;27.10;99.90
17425;DHT22;8830;50.978;5.058;2022-08-19T08:41:17;26.70;99.90
17425;DHT22;8830;50.978;5.058;2022-08-19T08:44:20;26.80;99.90
17425;DHT22;8830;50.978;5.058;2022-08-19T08:46:55;26.80;99.90
17425;DHT22;8830;50.978;5.058;2022-08-19T08:49:31;27.10;99.90
17425;DHT22;8830;50.978;5.058;2022-08-19T08:52:13;28.50;99.90
17425;DHT22;8830;50.978;5.058;2022-08-19T08:55:25;29.80;99.90
17425;DHT22;8830;50.978;5.058;2022-08-19T08:58:27;30.40;99.90
17425;DHT22;8830;50.978;5.058;2022-08-19T09:11:23;30.50;99.90
17425;DHT22;8830;50.978;5.058;2022-08-19T09:14:36;30.40;99.90
17425;DHT22;8830;50.978;5.058;2022-08-19T09:17:24;29.70;99.90
17425;DHT22;8830;50.978;5.058;2022-08-19T09:20:06;29.00;99.90
17425;DHT22;8830;50.978;5.058;2022-08-19T09:31:00;28.20;99.90
17425;DHT22;8830;50.978;5.058;2022-08-19T09:41:19;27.30;99.90
17425;DHT22;8830;50.978;5.058;2022-08-19T10:01:26;27.50;99.90
17425;DHT22;8830;50.978;5.058;2022-08-19T10:21:27;26.50;99.90
17425;DHT22;8830;50.978;5.058;2022-08-19T10:24:00;26.30;99.90
17425;DHT22;8830;50.978;5.058;2022-08-19T10:26:31;26.40;99.90
17425;DHT22;8830;50.978;5.058;2022-08-19T10:41:30;27.40;99.90
17425;DHT22;8830;50.978;5.058;2022-08-19T10:44:03;27.50;99.90
17425;DHT22;8830;50.978;5.058;2022-08-19T10:46:36;27.40;99.90
17425;DHT22;8830;50.978;5.058;2022-08-19T10:59:19;28.30;99.90
17425;DHT22;8830;50.978;5.058;2022-08-19T11:09:18;27.80;99.90
17425;DHT22;8830;50.978;5.058;2022-08-19T11:14:17;27.40;99.90
17425;DHT22;8830;50.978;5.058;2022-08-19T11:24:20;27.50;99.90
17425;DHT22;8830;50.978;5.058;2022-08-19T11:26:49;27.50;99.90
17425;DHT22;8830;50.978;5.058;2022-08-19T11:31:47;27.70;99.90
17425;DHT22;8830;50.978;5.058;2022-08-19T11:39:32;27.90;99.90
17425;DHT22;8830;50.978;5.058;2022-08-19T12:22:43;28.30;99.90
17425;DHT22;8830;50.978;5.058;2022-08-19T13:02:59;27.10;99.90
17425;DHT22;8830;50.978;5.058;2022-08-19T13:15:33;27.80;99.90
17425;DHT22;8830;50.978;5.058;2022-08-19T13:41:04;29.10;99.90
17425;DHT22;8830;50.978;5.058;2022-08-19T13:46:08;28.80;99.90
17425;DHT22;8830;50.978;5.058;2022-08-19T13:51:08;28.50;99.90
17425;DHT22;8830;50.978;5.058;2022-08-19T14:16:12;28.40;99.90
17425;DHT22;8830;50.978;5.058;2022-08-19T14:41:17;27.90;99.90
17425;DHT22;8830;50.978;5.058;2022-08-19T14:46:26;28.40;99.90
17425;DHT22;8830;50.978;5.058;2022-08-19T14:48:55;28.50;99.90
17425;DHT22;8830;50.978;5.058;2022-08-19T14:56:25;28.20;99.90
17425;DHT22;8830;50.978;5.058;2022-08-19T15:19:23;27.40;99.90
17425;DHT22;8830;50.978;5.058;2022-08-19T16:48:35;26.90;99.90
17425;DHT22;8830;50.978;5.058;2022-08-19T16:51:13;27.10;99.90
17425;DHT22;8830;50.978;5.058;2022-08-19T16:53:42;27.10;99.90
17425;DHT22;8830;50.978;5.058;2022-08-19T17:06:23;26.40;99.90
17425;DHT22;8830;50.978;5.058;2022-08-19T17:09:00;26.40;99.90
17425;DHT22;8830;50.978;5.058;2022-08-19T17:11:29;26.30;99.90
17425;DHT22;8830;50.978;5.058;2022-08-19T17:51:45;24.70;99.90
17425;DHT22;8830;50.978;5.058;2022-08-19T18:09:38;24.40;99.90
17425;DHT22;8830;50.978;5.058;2022-08-19T18:14:37;24.40;99.90
17425;DHT22;8830;50.978;5.058;2022-08-19T18:17:13;24.40;99.90
17425;DHT22;8830;50.978;5.058;2022-08-19T18:19:46;24.30;99.90
17425;DHT22;8830;50.978;5.058;2022-08-19T18:22:22;24.30;99.90
17425;DHT22;8830;50.978;5.058;2022-08-19T18:35:10;24.20;99.90
17425;DHT22;8830;50.978;5.058;2022-08-19T18:37:42;24.00;99.90
17425;DHT22;8830;50.978;5.058;2022-08-19T18:40:18;24.00;99.90
17425;DHT22;8830;50.978;5.058;2022-08-19T18:51:25;23.80;99.90
17425;DHT22;8830;50.978;5.058;2022-08-19T18:53:58;23.60;99.90
17425;DHT22;8830;50.978;5.058;2022-08-19T18:56:30;23.40;99.90
17425;DHT22;8830;50.978;5.058;2022-08-19T18:59:01;19.20;99.90
17425;DHT22;8830;50.978;5.058;2022-08-19T19:01:30;19.80;99.90
17425;DHT22;8830;50.978;5.058;2022-08-19T19:04:03;27.10;99.90
17425;DHT22;8830;50.978;5.058;2022-08-19T19:06:37;23.00;99.90
17425;DHT22;8830;50.978;5.058;2022-08-19T19:09:06;23.00;99.90
17425;DHT22;8830;50.978;5.058;2022-08-19T19:11:37;23.10;99.90
17425;DHT22;8830;50.978;5.058;2022-08-19T19:14:07;23.00;99.90
17425;DHT22;8830;50.978;5.058;2022-08-19T19:16:37;23.00;99.90
17425;DHT22;8830;50.978;5.058;2022-08-19T19:19:09;22.90;99.90
17425;DHT22;8830;50.978;5.058;2022-08-19T19:21:42;22.80;99.90
17425;DHT22;8830;50.978;5.058;2022-08-19T19:26:50;22.60;99.90
17425;DHT22;8830;50.978;5.058;2022-08-19T19:29:19;22.60;99.90
17425;DHT22;8830;50.978;5.058;2022-08-19T19:44:25;22.60;99.90
17425;DHT22;8830;50.978;5.058;2022-08-19T19:46:55;22.40;99.90
17425;DHT22;8830;50.978;5.058;2022-08-19T19:49:24;22.40;99.90
17425;DHT22;8830;50.978;5.058;2022-08-19T19:51:56;22.40;99.90
17425;DHT22;8830;50.978;5.058;2022-08-19T19:54:25;22.40;99.90
17425;DHT22;8830;50.978;5.058;2022-08-19T19:59:28;22.40;99.90
17425;DHT22;8830;50.978;5.058;2022-08-19T20:02:00;22.30;99.90
17425;DHT22;8830;50.978;5.058;2022-08-19T20:04:29;22.30;99.90
17425;DHT22;8830;50.978;5.058;2022-08-19T20:07:03;22.30;99.90
17425;DHT22;8830;50.978;5.058;2022-08-19T20:09:39;22.30;99.90
17425;DHT22;8830;50.978;5.058;2022-08-19T20:12:05;22.30;99.90
17425;DHT22;8830;50.978;5.058;2022-08-19T20:14:38;22.20;99.90
17425;DHT22;8830;50.978;5.058;2022-08-19T20:17:09;22.00;99.90
17425;DHT22;8830;50.978;5.058;2022-08-19T20:19:42;22.00;99.90
17425;DHT22;8830;50.978;5.058;2022-08-19T20:22:11;22.00;99.90
17425;DHT22;8830;50.978;5.058;2022-08-19T20:24:42;21.90;99.90
17425;DHT22;8830;50.978;5.058;2022-08-19T20:27:09;21.90;99.90
17425;DHT22;8830;50.978;5.058;2022-08-19T20:29:43;21.90;99.90
17425;DHT22;8830;50.978;5.058;2022-08-19T20:32:11;21.90;99.90
17425;DHT22;8830;50.978;5.058;2022-08-19T20:34:39;21.90;99.90
17425;DHT22;8830;50.978;5.058;2022-08-19T20:37:09;21.90;99.90
17425;DHT22;8830;50.978;5.058;2022-08-19T20:39:40;21.90;99.90
17425;DHT22;8830;50.978;5.058;2022-08-19T20:42:13;21.90;99.90
17425;DHT22;8830;50.978;5.058;2022-08-19T20:44:51;22.00;99.90
17425;DHT22;8830;50.978;5.058;2022-08-19T20:47:18;22.00;99.90
17425;DHT22;8830;50.978;5.058;2022-08-19T20:49:47;22.00;99.90
17425;DHT22;8830;50.978;5.058;2022-08-19T20:52:17;21.80;99.90
17425;DHT22;8830;50.978;5.058;2022-08-19T20:54:49;21.80;99.90
17425;DHT22;8830;50.978;5.058;2022-08-19T20:57:20;21.70;99.90
17425;DHT22;8830;50.978;5.058;2022-08-19T20:59:53;21.70;99.90
17425;DHT22;8830;50.978;5.058;2022-08-19T21:02:43;21.70;99.90
17425;DHT22;8830;50.978;5.058;2022-08-19T21:05:12;21.80;99.90
17425;DHT22;8830;50.978;5.058;2022-08-19T21:07:46;21.70;99.90
17425;DHT22;8830;50.978;5.058;2022-08-19T21:10:16;21.60;99.90
17425;DHT22;8830;50.978;5.058;2022-08-19T21:12:45;21.70;99.90
17425;DHT22;8830;50.978;5.058;2022-08-19T21:15:22;21.70;99.90
17425;DHT22;8830;50.978;5.058;2022-08-19T21:17:49;21.70;99.90
17425;DHT22;8830;50.978;5.058;2022-08-19T21:20:18;21.70;99.90
17425;DHT22;8830;50.978;5.058;2022-08-19T21:22:46;21.80;99.90
17425;DHT22;8830;50.978;5.058;2022-08-19T21:25:20;21.70;99.90
17425;DHT22;8830;50.978;5.058;2022-08-19T21:30:15;22.40;99.90
17425;DHT22;8830;50.978;5.058;2022-08-19T21:35:20;21.60;99.90
17425;DHT22;8830;50.978;5.058;2022-08-19T21:38:04;21.60;99.90
17425;DHT22;8830;50.978;5.058;2022-08-19T21:40:33;21.60;99.90
17425;DHT22;8830;50.978;5.058;2022-08-19T21:43:05;21.60;99.90
17425;DHT22;8830;50.978;5.058;2022-08-19T21:45:48;21.60;99.90
17425;DHT22;8830;50.978;5.058;2022-08-19T21:48:24;21.60;99.90
17425;DHT22;8830;50.978;5.058;2022-08-19T21:51:03;21.60;99.90
17425;DHT22;8830;50.978;5.058;2022-08-19T21:53:34;21.60;99.90
17425;DHT22;8830;50.978;5.058;2022-08-19T21:56:06;21.50;99.90
17425;DHT22;8830;50.978;5.058;2022-08-19T21:58:36;21.40;99.90
17425;DHT22;8830;50.978;5.058;2022-08-19T22:01:19;21.30;99.90
17425;DHT22;8830;50.978;5.058;2022-08-19T22:03:58;21.40;99.90
17425;DHT22;8830;50.978;5.058;2022-08-19T22:06:33;21.40;99.90
17425;DHT22;8830;50.978;5.058;2022-08-19T22:09:15;21.40;99.90
17425;DHT22;8830;50.978;5.058;2022-08-19T22:11:47;21.40;99.90
17425;DHT22;8830;50.978;5.058;2022-08-19T22:14:45;21.50;99.90
17425;DHT22;8830;50.978;5.058;2022-08-19T22:17:13;21.50;99.90
17425;DHT22;8830;50.978;5.058;2022-08-19T22:19:47;21.50;99.90
17425;DHT22;8830;50.978;5.058;2022-08-19T22:22:25;21.50;99.90
17425;DHT22;8830;50.978;5.058;2022-08-19T22:25:02;21.40;99.90
17425;DHT22;8830;50.978;5.058;2022-08-19T22:27:35;21.40;99.90
17425;DHT22;8830;50.978;5.058;2022-08-19T22:30:12;21.40;99.90
17425;DHT22;8830;50.978;5.058;2022-08-19T22:32:45;21.40;99.90
17425;DHT22;8830;50.978;5.058;2022-08-19T22:35:22;21.40;99.90
17425;DHT22;8830;50.978;5.058;2022-08-19T22:37:52;21.40;99.90
17425;DHT22;8830;50.978;5.058;2022-08-19T22:40:33;21.40;99.90
17425;DHT22;8830;50.978;5.058;2022-08-19T22:43:21;21.40;99.90
17425;DHT22;8830;50.978;5.058;2022-08-19T22:45:58;21.40;99.90
17425;DHT22;8830;50.978;5.058;2022-08-19T22:48:29;21.40;99.90
17425;DHT22;8830;50.978;5.058;2022-08-19T22:51:22;21.40;99.90
17425;DHT22;8830;50.978;5.058;2022-08-19T22:54:10;21.40;99.90
17425;DHT22;8830;50.978;5.058;2022-08-19T22:56:47;21.40;99.90
17425;DHT22;8830;50.978;5.058;2022-08-19T22:59:23;21.40;99.90
17425;DHT22;8830;50.978;5.058;2022-08-19T23:02:07;21.30;99.90
17425;DHT22;8830;50.978;5.058;2022-08-19T23:04:49;21.30;99.90
17425;DHT22;8830;50.978;5.058;2022-08-19T23:07:31;21.30;99.90
17425;DHT22;8830;50.978;5.058;2022-08-19T23:10:08;21.30;99.90
17425;DHT22;8830;50.978;5.058;2022-08-19T23:12:45;21.20;99.90
17425;DHT22;8830;50.978;5.058;2022-08-19T23:15:24;21.20;99.90
17425;DHT22;8830;50.978;5.058;2022-08-19T23:17:58;21.20;99.90
17425;DHT22;8830;50.978;5.058;2022-08-19T23:20:38;21.30;99.90
17425;DHT22;8830;50.978;5.058;2022-08-19T23:23:24;21.20;99.90
17425;DHT22;8830;50.978;5.058;2022-08-19T23:25:55;21.20;99.90
17425;DHT22;8830;50.978;5.058;2022-08-19T23:38:48;21.10;99.90
17425;DHT22;8830;50.978;5.058;2022-08-19T23:41:48;21.10;99.90
17425;DHT22;8830;50.978;5.058;2022-08-19T23:44:21;21.00;99.90
17425;DHT22;8830;50.978;5.058;2022-08-19T23:47:00;21.00;99.90
17425;DHT22;8830;50.978;5.058;2022-08-19T23:49:33;21.00;99.90
17425;DHT22;8830;50.978;5.058;2022-08-19T23:52:18;21.00;99.90
17425;DHT22;8830;50.978;5.058;2022-08-19T23:55:08;21.00;99.90
17425;DHT22;8830;50.978;5.058;2022-08-19T23:57:37;21.00;99.90
